sensor_id;sensor_type;location;lat;lon;timestamp;P1;durP1;ratioP1;P2;durP2;ratioP2
14276;SDS011;7222;57.346;12.150;2022-07-03T00:01:35;2.53;;;1.87;;
14276;SDS011;7222;57.346;12.150;2022-07-03T00:04:03;3.37;;;1.90;;
14276;SDS011;7222;57.346;12.150;2022-07-03T00:06:31;4.37;;;1.60;;
14276;SDS011;7222;57.346;12.150;2022-07-03T00:08:59;2.73;;;1.90;;
14276;SDS011;7222;57.346;12.150;2022-07-03T00:11:28;1.63;;;1.40;;
14276;SDS011;7222;57.346;12.150;2022-07-03T00:13:55;4.73;;;1.83;;
14276;SDS011;7222;57.346;12.150;2022-07-03T00:16:24;2.87;;;1.77;;
14276;SDS011;7222;57.346;12.150;2022-07-03T00:18:51;3.40;;;1.60;;
14276;SDS011;7222;57.346;12.150;2022-07-03T00:21:19;2.70;;;1.67;;
14276;SDS011;7222;57.346;12.150;2022-07-03T00:23:52;2.23;;;1.70;;
14276;SDS011;7222;57.346;12.150;2022-07-03T00:26:24;4.63;;;1.47;;
14276;SDS011;7222;57.346;12.150;2022-07-03T00:28:56;5.23;;;1.60;;
14276;SDS011;7222;57.346;12.150;2022-07-03T00:31:27;3.33;;;1.63;;
14276;SDS011;7222;57.346;12.150;2022-07-03T00:33:56;3.63;;;1.60;;
14276;SDS011;7222;57.346;12.150;2022-07-03T00:36:24;3.23;;;1.63;;
14276;SDS011;7222;57.346;12.150;2022-07-03T00:38:53;3.63;;;1.60;;
14276;SDS011;7222;57.346;12.150;2022-07-03T00:41:23;3.40;;;1.40;;
14276;SDS011;7222;57.346;12.150;2022-07-03T00:43:52;3.77;;;1.33;;
14276;SDS011;7222;57.346;12.150;2022-07-03T00:46:20;1.60;;;1.07;;
14276;SDS011;7222;57.346;12.150;2022-07-03T00:48:51;1.77;;;1.30;;
14276;SDS011;7222;57.346;12.150;2022-07-03T00:51:20;2.30;;;1.40;;
14276;SDS011;7222;57.346;12.150;2022-07-03T00:53:49;3.23;;;1.50;;
14276;SDS011;7222;57.346;12.150;2022-07-03T00:56:22;3.40;;;1.37;;
14276;SDS011;7222;57.346;12.150;2022-07-03T00:58:51;3.63;;;1.33;;
14276;SDS011;7222;57.346;12.150;2022-07-03T01:01:20;2.40;;;1.33;;
14276;SDS011;7222;57.346;12.150;2022-07-03T01:03:48;2.87;;;1.37;;
14276;SDS011;7222;57.346;12.150;2022-07-03T01:06:28;2.87;;;1.50;;
14276;SDS011;7222;57.346;12.150;2022-07-03T01:09:02;2.73;;;1.30;;
14276;SDS011;7222;57.346;12.150;2022-07-03T01:11:32;2.10;;;1.30;;
14276;SDS011;7222;57.346;12.150;2022-07-03T01:16:55;2.17;;;1.20;;
14276;SDS011;7222;57.346;12.150;2022-07-03T01:19:34;2.23;;;1.40;;
14276;SDS011;7222;57.346;12.150;2022-07-03T01:22:09;3.63;;;1.37;;
14276;SDS011;7222;57.346;12.150;2022-07-03T01:25:13;1.87;;;1.50;;
14276;SDS011;7222;57.346;12.150;2022-07-03T01:27:52;1.47;;;1.17;;
14276;SDS011;7222;57.346;12.150;2022-07-03T01:30:24;2.50;;;1.20;;
14276;SDS011;7222;57.346;12.150;2022-07-03T01:32:56;1.97;;;1.20;;
14276;SDS011;7222;57.346;12.150;2022-07-03T01:35:31;3.13;;;1.10;;
14276;SDS011;7222;57.346;12.150;2022-07-03T01:38:04;2.47;;;1.20;;
14276;SDS011;7222;57.346;12.150;2022-07-03T01:40:34;2.63;;;1.20;;
14276;SDS011;7222;57.346;12.150;2022-07-03T01:43:04;2.30;;;1.23;;
14276;SDS011;7222;57.346;12.150;2022-07-03T01:45:34;2.60;;;1.40;;
14276;SDS011;7222;57.346;12.150;2022-07-03T01:48:07;1.40;;;1.20;;
14276;SDS011;7222;57.346;12.150;2022-07-03T01:50:36;2.80;;;1.13;;
14276;SDS011;7222;57.346;12.150;2022-07-03T01:53:06;1.63;;;1.20;;
14276;SDS011;7222;57.346;12.150;2022-07-03T01:55:34;1.83;;;1.07;;
14276;SDS011;7222;57.346;12.150;2022-07-03T01:58:05;2.63;;;1.47;;
14276;SDS011;7222;57.346;12.150;2022-07-03T02:00:36;2.63;;;1.20;;
14276;SDS011;7222;57.346;12.150;2022-07-03T02:03:11;1.67;;;1.00;;
14276;SDS011;7222;57.346;12.150;2022-07-03T02:05:45;1.83;;;1.20;;
14276;SDS011;7222;57.346;12.150;2022-07-03T02:08:24;2.40;;;1.23;;
14276;SDS011;7222;57.346;12.150;2022-07-03T02:11:13;1.40;;;1.10;;
14276;SDS011;7222;57.346;12.150;2022-07-03T02:13:49;1.63;;;1.13;;
14276;SDS011;7222;57.346;12.150;2022-07-03T02:16:19;2.40;;;1.20;;
14276;SDS011;7222;57.346;12.150;2022-07-03T02:18:50;1.10;;;1.00;;
14276;SDS011;7222;57.346;12.150;2022-07-03T02:21:25;1.23;;;1.10;;
14276;SDS011;7222;57.346;12.150;2022-07-03T02:23:57;3.00;;;1.20;;
14276;SDS011;7222;57.346;12.150;2022-07-03T02:26:37;2.03;;;1.37;;
14276;SDS011;7222;57.346;12.150;2022-07-03T02:29:07;2.10;;;1.10;;
14276;SDS011;7222;57.346;12.150;2022-07-03T02:31:40;3.83;;;1.40;;
14276;SDS011;7222;57.346;12.150;2022-07-03T02:34:11;2.10;;;1.23;;
14276;SDS011;7222;57.346;12.150;2022-07-03T02:36:43;2.40;;;1.30;;
14276;SDS011;7222;57.346;12.150;2022-07-03T02:39:14;2.50;;;1.10;;
14276;SDS011;7222;57.346;12.150;2022-07-03T02:41:50;0.83;;;0.83;;
14276;SDS011;7222;57.346;12.150;2022-07-03T02:44:25;1.93;;;1.37;;
14276;SDS011;7222;57.346;12.150;2022-07-03T02:47:00;2.60;;;1.27;;
14276;SDS011;7222;57.346;12.150;2022-07-03T02:49:41;3.50;;;1.43;;
14276;SDS011;7222;57.346;12.150;2022-07-03T02:52:14;1.43;;;1.33;;
14276;SDS011;7222;57.346;12.150;2022-07-03T02:54:48;1.83;;;1.20;;
14276;SDS011;7222;57.346;12.150;2022-07-03T02:57:19;1.80;;;1.10;;
14276;SDS011;7222;57.346;12.150;2022-07-03T02:59:55;2.70;;;1.60;;
14276;SDS011;7222;57.346;12.150;2022-07-03T03:02:36;2.73;;;1.30;;
14276;SDS011;7222;57.346;12.150;2022-07-03T03:05:20;1.40;;;1.30;;
14276;SDS011;7222;57.346;12.150;2022-07-03T03:07:52;3.00;;;1.30;;
14276;SDS011;7222;57.346;12.150;2022-07-03T03:10:33;1.27;;;1.10;;
14276;SDS011;7222;57.346;12.150;2022-07-03T03:13:02;2.53;;;1.43;;
14276;SDS011;7222;57.346;12.150;2022-07-03T03:15:32;1.53;;;1.27;;
14276;SDS011;7222;57.346;12.150;2022-07-03T03:18:01;1.63;;;1.30;;
14276;SDS011;7222;57.346;12.150;2022-07-03T03:20:31;1.30;;;1.23;;
14276;SDS011;7222;57.346;12.150;2022-07-03T03:23:04;3.73;;;1.37;;
14276;SDS011;7222;57.346;12.150;2022-07-03T03:25:38;2.07;;;1.40;;
14276;SDS011;7222;57.346;12.150;2022-07-03T03:28:05;2.63;;;1.27;;
14276;SDS011;7222;57.346;12.150;2022-07-03T03:30:34;1.33;;;1.10;;
14276;SDS011;7222;57.346;12.150;2022-07-03T03:33:01;1.77;;;1.00;;
14276;SDS011;7222;57.346;12.150;2022-07-03T03:35:29;2.00;;;1.13;;
14276;SDS011;7222;57.346;12.150;2022-07-03T03:37:56;2.20;;;1.20;;
14276;SDS011;7222;57.346;12.150;2022-07-03T03:40:23;2.13;;;1.20;;
14276;SDS011;7222;57.346;12.150;2022-07-03T03:42:50;1.83;;;1.10;;
14276;SDS011;7222;57.346;12.150;2022-07-03T03:45:17;2.63;;;1.50;;
14276;SDS011;7222;57.346;12.150;2022-07-03T03:47:46;1.47;;;1.30;;
14276;SDS011;7222;57.346;12.150;2022-07-03T03:50:13;2.10;;;1.20;;
14276;SDS011;7222;57.346;12.150;2022-07-03T03:52:41;1.70;;;1.20;;
14276;SDS011;7222;57.346;12.150;2022-07-03T03:55:08;1.40;;;1.30;;
14276;SDS011;7222;57.346;12.150;2022-07-03T03:57:35;3.07;;;1.30;;
14276;SDS011;7222;57.346;12.150;2022-07-03T04:00:03;3.00;;;1.20;;
14276;SDS011;7222;57.346;12.150;2022-07-03T04:02:31;2.30;;;1.43;;
14276;SDS011;7222;57.346;12.150;2022-07-03T04:05:00;2.13;;;1.50;;
14276;SDS011;7222;57.346;12.150;2022-07-03T04:07:27;1.90;;;1.50;;
14276;SDS011;7222;57.346;12.150;2022-07-03T04:09:54;2.17;;;1.50;;
14276;SDS011;7222;57.346;12.150;2022-07-03T04:12:21;2.73;;;1.40;;
14276;SDS011;7222;57.346;12.150;2022-07-03T04:14:48;2.03;;;1.20;;
14276;SDS011;7222;57.346;12.150;2022-07-03T04:17:15;2.20;;;1.40;;
14276;SDS011;7222;57.346;12.150;2022-07-03T04:19:42;1.77;;;1.50;;
14276;SDS011;7222;57.346;12.150;2022-07-03T04:22:11;1.87;;;1.60;;
14276;SDS011;7222;57.346;12.150;2022-07-03T04:24:38;2.10;;;1.60;;
14276;SDS011;7222;57.346;12.150;2022-07-03T04:27:05;3.83;;;1.90;;
14276;SDS011;7222;57.346;12.150;2022-07-03T04:29:32;1.67;;;1.50;;
14276;SDS011;7222;57.346;12.150;2022-07-03T04:31:59;2.57;;;1.97;;
14276;SDS011;7222;57.346;12.150;2022-07-03T04:34:26;2.43;;;1.90;;
14276;SDS011;7222;57.346;12.150;2022-07-03T04:36:53;5.27;;;2.63;;
14276;SDS011;7222;57.346;12.150;2022-07-03T04:39:22;2.73;;;2.30;;
14276;SDS011;7222;57.346;12.150;2022-07-03T04:41:49;2.57;;;2.30;;
14276;SDS011;7222;57.346;12.150;2022-07-03T04:44:16;4.57;;;2.53;;
14276;SDS011;7222;57.346;12.150;2022-07-03T04:46:43;3.67;;;2.70;;
14276;SDS011;7222;57.346;12.150;2022-07-03T04:49:10;4.10;;;2.60;;
14276;SDS011;7222;57.346;12.150;2022-07-03T04:51:38;4.17;;;2.40;;
14276;SDS011;7222;57.346;12.150;2022-07-03T04:54:05;3.20;;;2.20;;
14276;SDS011;7222;57.346;12.150;2022-07-03T04:56:33;4.80;;;2.63;;
14276;SDS011;7222;57.346;12.150;2022-07-03T04:59:01;2.80;;;2.53;;
14276;SDS011;7222;57.346;12.150;2022-07-03T05:01:28;4.03;;;2.30;;
14276;SDS011;7222;57.346;12.150;2022-07-03T05:03:55;4.77;;;3.10;;
14276;SDS011;7222;57.346;12.150;2022-07-03T05:06:22;3.40;;;3.00;;
14276;SDS011;7222;57.346;12.150;2022-07-03T05:08:49;3.27;;;2.97;;
14276;SDS011;7222;57.346;12.150;2022-07-03T05:11:16;3.10;;;2.90;;
14276;SDS011;7222;57.346;12.150;2022-07-03T05:13:45;4.33;;;3.03;;
14276;SDS011;7222;57.346;12.150;2022-07-03T05:16:12;4.33;;;3.33;;
14276;SDS011;7222;57.346;12.150;2022-07-03T05:18:39;4.17;;;2.87;;
14276;SDS011;7222;57.346;12.150;2022-07-03T05:21:06;3.20;;;3.00;;
14276;SDS011;7222;57.346;12.150;2022-07-03T05:23:33;3.23;;;2.90;;
14276;SDS011;7222;57.346;12.150;2022-07-03T05:26:00;3.60;;;3.30;;
14276;SDS011;7222;57.346;12.150;2022-07-03T05:28:27;4.63;;;3.40;;
14276;SDS011;7222;57.346;12.150;2022-07-03T05:30:56;4.23;;;3.23;;
14276;SDS011;7222;57.346;12.150;2022-07-03T05:33:23;3.23;;;2.90;;
14276;SDS011;7222;57.346;12.150;2022-07-03T05:35:50;4.40;;;3.37;;
14276;SDS011;7222;57.346;12.150;2022-07-03T05:38:17;3.47;;;3.17;;
14276;SDS011;7222;57.346;12.150;2022-07-03T05:41:10;5.67;;;3.70;;
14276;SDS011;7222;57.346;12.150;2022-07-03T05:43:37;5.63;;;4.13;;
14276;SDS011;7222;57.346;12.150;2022-07-03T05:46:06;4.30;;;3.57;;
14276;SDS011;7222;57.346;12.150;2022-07-03T05:48:33;6.20;;;4.17;;
14276;SDS011;7222;57.346;12.150;2022-07-03T05:51:00;7.50;;;4.20;;
14276;SDS011;7222;57.346;12.150;2022-07-03T05:53:27;5.57;;;3.90;;
14276;SDS011;7222;57.346;12.150;2022-07-03T05:55:54;4.10;;;3.77;;
14276;SDS011;7222;57.346;12.150;2022-07-03T05:58:22;4.10;;;3.80;;
14276;SDS011;7222;57.346;12.150;2022-07-03T06:00:49;5.43;;;4.20;;
14276;SDS011;7222;57.346;12.150;2022-07-03T06:03:18;7.97;;;4.03;;
14276;SDS011;7222;57.346;12.150;2022-07-03T06:05:45;5.00;;;3.60;;
14276;SDS011;7222;57.346;12.150;2022-07-03T06:08:12;4.23;;;3.43;;
14276;SDS011;7222;57.346;12.150;2022-07-03T06:10:39;5.33;;;3.70;;
14276;SDS011;7222;57.346;12.150;2022-07-03T06:13:06;5.93;;;3.67;;
14276;SDS011;7222;57.346;12.150;2022-07-03T06:15:33;3.90;;;3.50;;
14276;SDS011;7222;57.346;12.150;2022-07-03T06:18:00;5.70;;;3.53;;
14276;SDS011;7222;57.346;12.150;2022-07-03T06:20:28;3.90;;;3.10;;
14276;SDS011;7222;57.346;12.150;2022-07-03T06:22:56;4.80;;;3.30;;
14276;SDS011;7222;57.346;12.150;2022-07-03T06:25:23;3.40;;;3.10;;
14276;SDS011;7222;57.346;12.150;2022-07-03T06:27:50;5.00;;;3.27;;
14276;SDS011;7222;57.346;12.150;2022-07-03T06:30:17;5.63;;;2.93;;
14276;SDS011;7222;57.346;12.150;2022-07-03T06:32:44;3.47;;;3.13;;
14276;SDS011;7222;57.346;12.150;2022-07-03T06:35:11;3.47;;;2.80;;
14276;SDS011;7222;57.346;12.150;2022-07-03T06:37:39;3.80;;;3.33;;
14276;SDS011;7222;57.346;12.150;2022-07-03T06:40:07;3.40;;;3.10;;
14276;SDS011;7222;57.346;12.150;2022-07-03T06:42:35;4.60;;;3.40;;
14276;SDS011;7222;57.346;12.150;2022-07-03T06:45:02;3.57;;;3.27;;
14276;SDS011;7222;57.346;12.150;2022-07-03T06:47:30;3.37;;;2.90;;
14276;SDS011;7222;57.346;12.150;2022-07-03T06:49:57;4.87;;;3.20;;
14276;SDS011;7222;57.346;12.150;2022-07-03T06:52:24;4.00;;;2.90;;
14276;SDS011;7222;57.346;12.150;2022-07-03T06:54:53;3.83;;;3.30;;
14276;SDS011;7222;57.346;12.150;2022-07-03T06:57:20;3.07;;;2.33;;
14276;SDS011;7222;57.346;12.150;2022-07-03T06:59:47;3.73;;;2.70;;
14276;SDS011;7222;57.346;12.150;2022-07-03T07:02:14;4.73;;;2.53;;
14276;SDS011;7222;57.346;12.150;2022-07-03T07:04:41;2.77;;;2.57;;
14276;SDS011;7222;57.346;12.150;2022-07-03T07:07:08;2.97;;;2.37;;
14276;SDS011;7222;57.346;12.150;2022-07-03T07:09:35;2.60;;;2.40;;
14276;SDS011;7222;57.346;12.150;2022-07-03T07:12:04;2.30;;;2.17;;
14276;SDS011;7222;57.346;12.150;2022-07-03T07:14:32;2.40;;;2.07;;
14276;SDS011;7222;57.346;12.150;2022-07-03T07:16:59;2.27;;;2.07;;
14276;SDS011;7222;57.346;12.150;2022-07-03T07:19:26;3.50;;;2.10;;
14276;SDS011;7222;57.346;12.150;2022-07-03T07:21:53;2.90;;;1.93;;
14276;SDS011;7222;57.346;12.150;2022-07-03T07:24:20;3.67;;;2.30;;
14276;SDS011;7222;57.346;12.150;2022-07-03T07:26:48;3.30;;;2.40;;
14276;SDS011;7222;57.346;12.150;2022-07-03T07:29:16;2.37;;;2.17;;
14276;SDS011;7222;57.346;12.150;2022-07-03T07:31:43;2.30;;;2.20;;
14276;SDS011;7222;57.346;12.150;2022-07-03T07:34:13;3.00;;;2.30;;
14276;SDS011;7222;57.346;12.150;2022-07-03T07:36:41;2.67;;;2.00;;
14276;SDS011;7222;57.346;12.150;2022-07-03T07:39:08;2.60;;;2.07;;
14276;SDS011;7222;57.346;12.150;2022-07-03T07:41:35;2.63;;;2.00;;
14276;SDS011;7222;57.346;12.150;2022-07-03T07:44:03;3.40;;;2.40;;
14276;SDS011;7222;57.346;12.150;2022-07-03T07:46:31;2.23;;;2.10;;
14276;SDS011;7222;57.346;12.150;2022-07-03T07:48:59;2.63;;;2.43;;
14276;SDS011;7222;57.346;12.150;2022-07-03T07:51:26;3.10;;;2.80;;
14276;SDS011;7222;57.346;12.150;2022-07-03T07:53:53;2.50;;;2.30;;
14276;SDS011;7222;57.346;12.150;2022-07-03T07:56:22;3.00;;;2.70;;
14276;SDS011;7222;57.346;12.150;2022-07-03T07:58:50;2.40;;;2.20;;
14276;SDS011;7222;57.346;12.150;2022-07-03T08:01:17;3.17;;;2.40;;
14276;SDS011;7222;57.346;12.150;2022-07-03T08:04:03;2.67;;;2.07;;
14276;SDS011;7222;57.346;12.150;2022-07-03T08:06:48;2.50;;;2.30;;
14276;SDS011;7222;57.346;12.150;2022-07-03T08:09:15;2.03;;;1.93;;
14276;SDS011;7222;57.346;12.150;2022-07-03T08:11:42;3.87;;;2.63;;
14276;SDS011;7222;57.346;12.150;2022-07-03T08:14:10;3.23;;;2.37;;
14276;SDS011;7222;57.346;12.150;2022-07-03T08:16:37;2.87;;;2.40;;
14276;SDS011;7222;57.346;12.150;2022-07-03T08:19:07;2.77;;;2.20;;
14276;SDS011;7222;57.346;12.150;2022-07-03T08:21:34;2.27;;;2.17;;
14276;SDS011;7222;57.346;12.150;2022-07-03T08:24:01;3.47;;;2.40;;
14276;SDS011;7222;57.346;12.150;2022-07-03T08:26:29;2.23;;;2.13;;
14276;SDS011;7222;57.346;12.150;2022-07-03T08:28:56;3.07;;;2.77;;
14276;SDS011;7222;57.346;12.150;2022-07-03T08:31:23;2.97;;;2.20;;
14276;SDS011;7222;57.346;12.150;2022-07-03T08:33:50;2.30;;;2.20;;
14276;SDS011;7222;57.346;12.150;2022-07-03T08:36:18;2.97;;;2.27;;
14276;SDS011;7222;57.346;12.150;2022-07-03T08:38:46;4.47;;;2.53;;
14276;SDS011;7222;57.346;12.150;2022-07-03T08:41:13;2.50;;;2.30;;
14276;SDS011;7222;57.346;12.150;2022-07-03T08:43:42;2.73;;;2.40;;
14276;SDS011;7222;57.346;12.150;2022-07-03T08:46:11;2.43;;;2.23;;
14276;SDS011;7222;57.346;12.150;2022-07-03T08:48:38;3.40;;;3.20;;
14276;SDS011;7222;57.346;12.150;2022-07-03T08:51:07;3.00;;;2.80;;
14276;SDS011;7222;57.346;12.150;2022-07-03T08:53:36;2.83;;;2.67;;
14276;SDS011;7222;57.346;12.150;2022-07-03T08:56:04;2.60;;;2.37;;
14276;SDS011;7222;57.346;12.150;2022-07-03T08:58:33;2.57;;;2.37;;
14276;SDS011;7222;57.346;12.150;2022-07-03T09:01:01;2.87;;;2.60;;
14276;SDS011;7222;57.346;12.150;2022-07-03T09:03:28;3.00;;;2.70;;
14276;SDS011;7222;57.346;12.150;2022-07-03T09:05:57;3.37;;;2.83;;
14276;SDS011;7222;57.346;12.150;2022-07-03T09:08:24;2.70;;;2.50;;
14276;SDS011;7222;57.346;12.150;2022-07-03T09:10:57;2.60;;;2.40;;
14276;SDS011;7222;57.346;12.150;2022-07-03T09:13:24;2.60;;;2.40;;
14276;SDS011;7222;57.346;12.150;2022-07-03T09:15:51;2.33;;;2.20;;
14276;SDS011;7222;57.346;12.150;2022-07-03T09:18:18;2.37;;;2.10;;
14276;SDS011;7222;57.346;12.150;2022-07-03T09:21:03;2.97;;;2.67;;
14276;SDS011;7222;57.346;12.150;2022-07-03T09:23:34;2.20;;;2.10;;
14276;SDS011;7222;57.346;12.150;2022-07-03T09:26:05;4.00;;;2.47;;
14276;SDS011;7222;57.346;12.150;2022-07-03T09:28:41;3.23;;;2.67;;
14276;SDS011;7222;57.346;12.150;2022-07-03T09:31:14;3.00;;;2.00;;
14276;SDS011;7222;57.346;12.150;2022-07-03T09:33:53;3.57;;;2.43;;
14276;SDS011;7222;57.346;12.150;2022-07-03T09:36:22;3.33;;;2.57;;
14276;SDS011;7222;57.346;12.150;2022-07-03T09:39:10;2.60;;;2.33;;
14276;SDS011;7222;57.346;12.150;2022-07-03T09:41:51;3.00;;;2.40;;
14276;SDS011;7222;57.346;12.150;2022-07-03T09:44:27;2.80;;;2.60;;
14276;SDS011;7222;57.346;12.150;2022-07-03T09:47:06;3.00;;;2.80;;
14276;SDS011;7222;57.346;12.150;2022-07-03T09:49:44;3.13;;;2.60;;
14276;SDS011;7222;57.346;12.150;2022-07-03T09:52:25;3.10;;;2.60;;
14276;SDS011;7222;57.346;12.150;2022-07-03T09:54:54;3.67;;;3.37;;
14276;SDS011;7222;57.346;12.150;2022-07-03T09:57:22;3.43;;;3.17;;
14276;SDS011;7222;57.346;12.150;2022-07-03T09:59:52;3.17;;;2.90;;
14276;SDS011;7222;57.346;12.150;2022-07-03T10:02:36;3.40;;;3.10;;
14276;SDS011;7222;57.346;12.150;2022-07-03T10:05:17;4.00;;;3.10;;
14276;SDS011;7222;57.346;12.150;2022-07-03T10:07:50;2.80;;;2.57;;
14276;SDS011;7222;57.346;12.150;2022-07-03T10:10:19;3.33;;;3.03;;
14276;SDS011;7222;57.346;12.150;2022-07-03T10:12:49;3.03;;;2.73;;
14276;SDS011;7222;57.346;12.150;2022-07-03T10:15:18;4.10;;;3.33;;
14276;SDS011;7222;57.346;12.150;2022-07-03T10:17:46;5.00;;;3.20;;
14276;SDS011;7222;57.346;12.150;2022-07-03T10:20:15;3.50;;;3.20;;
14276;SDS011;7222;57.346;12.150;2022-07-03T10:22:50;2.93;;;2.73;;
14276;SDS011;7222;57.346;12.150;2022-07-03T10:25:18;3.30;;;3.03;;
14276;SDS011;7222;57.346;12.150;2022-07-03T10:27:45;3.00;;;2.80;;
14276;SDS011;7222;57.346;12.150;2022-07-03T10:30:15;3.70;;;3.43;;
14276;SDS011;7222;57.346;12.150;2022-07-03T10:32:44;3.53;;;3.23;;
14276;SDS011;7222;57.346;12.150;2022-07-03T10:35:12;3.13;;;2.93;;
14276;SDS011;7222;57.346;12.150;2022-07-03T10:37:46;3.70;;;3.30;;
14276;SDS011;7222;57.346;12.150;2022-07-03T10:40:34;3.63;;;3.33;;
14276;SDS011;7222;57.346;12.150;2022-07-03T10:43:26;4.60;;;4.27;;
14276;SDS011;7222;57.346;12.150;2022-07-03T10:46:14;4.67;;;4.23;;
14276;SDS011;7222;57.346;12.150;2022-07-03T10:54:19;4.53;;;3.53;;
14276;SDS011;7222;57.346;12.150;2022-07-03T11:02:32;3.87;;;3.53;;
14276;SDS011;7222;57.346;12.150;2022-07-03T11:05:06;5.27;;;4.70;;
14276;SDS011;7222;57.346;12.150;2022-07-03T11:07:42;3.40;;;3.10;;
14276;SDS011;7222;57.346;12.150;2022-07-03T11:10:30;4.80;;;4.30;;
14276;SDS011;7222;57.346;12.150;2022-07-03T11:13:00;4.00;;;3.70;;
14276;SDS011;7222;57.346;12.150;2022-07-03T11:15:29;5.07;;;4.67;;
14276;SDS011;7222;57.346;12.150;2022-07-03T11:18:12;5.13;;;4.47;;
14276;SDS011;7222;57.346;12.150;2022-07-03T11:24:09;4.03;;;3.77;;
14276;SDS011;7222;57.346;12.150;2022-07-03T11:27:13;6.40;;;3.70;;
14276;SDS011;7222;57.346;12.150;2022-07-03T11:29:48;5.30;;;4.73;;
14276;SDS011;7222;57.346;12.150;2022-07-03T11:38:22;3.87;;;3.60;;
14276;SDS011;7222;57.346;12.150;2022-07-03T11:40:52;5.10;;;3.97;;
14276;SDS011;7222;57.346;12.150;2022-07-03T11:43:20;4.63;;;4.20;;
14276;SDS011;7222;57.346;12.150;2022-07-03T11:45:47;6.97;;;5.40;;
14276;SDS011;7222;57.346;12.150;2022-07-03T11:48:15;6.40;;;5.80;;
14276;SDS011;7222;57.346;12.150;2022-07-03T11:50:44;5.27;;;4.77;;
14276;SDS011;7222;57.346;12.150;2022-07-03T11:53:23;4.17;;;3.87;;
14276;SDS011;7222;57.346;12.150;2022-07-03T11:55:53;4.97;;;4.57;;
14276;SDS011;7222;57.346;12.150;2022-07-03T11:58:22;6.50;;;5.90;;
14276;SDS011;7222;57.346;12.150;2022-07-03T12:00:50;5.50;;;5.00;;
14276;SDS011;7222;57.346;12.150;2022-07-03T12:03:22;5.43;;;4.97;;
14276;SDS011;7222;57.346;12.150;2022-07-03T12:05:55;4.77;;;4.30;;
14276;SDS011;7222;57.346;12.150;2022-07-03T12:08:28;5.60;;;5.10;;
14276;SDS011;7222;57.346;12.150;2022-07-03T12:10:58;5.50;;;4.70;;
14276;SDS011;7222;57.346;12.150;2022-07-03T12:13:27;6.00;;;4.27;;
14276;SDS011;7222;57.346;12.150;2022-07-03T12:16:02;5.47;;;4.97;;
14276;SDS011;7222;57.346;12.150;2022-07-03T12:18:43;4.60;;;4.17;;
14276;SDS011;7222;57.346;12.150;2022-07-03T12:21:12;8.07;;;7.13;;
14276;SDS011;7222;57.346;12.150;2022-07-03T12:23:41;6.30;;;5.70;;
14276;SDS011;7222;57.346;12.150;2022-07-03T12:26:10;10.27;;;7.67;;
14276;SDS011;7222;57.346;12.150;2022-07-03T12:28:38;8.70;;;7.90;;
14276;SDS011;7222;57.346;12.150;2022-07-03T12:31:07;5.33;;;4.87;;
14276;SDS011;7222;57.346;12.150;2022-07-03T12:33:34;7.10;;;6.40;;
14276;SDS011;7222;57.346;12.150;2022-07-03T12:36:02;6.37;;;5.83;;
14276;SDS011;7222;57.346;12.150;2022-07-03T12:38:30;5.30;;;4.87;;
14276;SDS011;7222;57.346;12.150;2022-07-03T12:41:03;6.83;;;5.57;;
14276;SDS011;7222;57.346;12.150;2022-07-03T12:43:38;6.27;;;5.77;;
14276;SDS011;7222;57.346;12.150;2022-07-03T12:46:21;5.97;;;5.47;;
14276;SDS011;7222;57.346;12.150;2022-07-03T12:48:50;7.10;;;6.53;;
14276;SDS011;7222;57.346;12.150;2022-07-03T12:51:37;7.63;;;6.83;;
14276;SDS011;7222;57.346;12.150;2022-07-03T12:54:08;10.00;;;8.80;;
14276;SDS011;7222;57.346;12.150;2022-07-03T12:56:38;8.93;;;6.47;;
14276;SDS011;7222;57.346;12.150;2022-07-03T12:59:06;5.70;;;5.20;;
14276;SDS011;7222;57.346;12.150;2022-07-03T13:01:42;8.33;;;6.40;;
14276;SDS011;7222;57.346;12.150;2022-07-03T13:04:10;6.73;;;6.07;;
14276;SDS011;7222;57.346;12.150;2022-07-03T13:06:40;6.63;;;6.10;;
14276;SDS011;7222;57.346;12.150;2022-07-03T13:09:10;6.70;;;6.00;;
14276;SDS011;7222;57.346;12.150;2022-07-03T13:11:40;8.73;;;6.60;;
14276;SDS011;7222;57.346;12.150;2022-07-03T13:14:08;6.93;;;6.33;;
14276;SDS011;7222;57.346;12.150;2022-07-03T13:16:43;6.17;;;5.67;;
14276;SDS011;7222;57.346;12.150;2022-07-03T13:19:11;5.70;;;5.30;;
14276;SDS011;7222;57.346;12.150;2022-07-03T13:21:40;6.70;;;6.03;;
14276;SDS011;7222;57.346;12.150;2022-07-03T13:24:08;6.17;;;5.57;;
14276;SDS011;7222;57.346;12.150;2022-07-03T13:26:36;5.37;;;4.93;;
14276;SDS011;7222;57.346;12.150;2022-07-03T13:29:05;6.43;;;5.90;;
14276;SDS011;7222;57.346;12.150;2022-07-03T13:31:33;5.40;;;5.00;;
14276;SDS011;7222;57.346;12.150;2022-07-03T13:34:00;6.87;;;6.27;;
14276;SDS011;7222;57.346;12.150;2022-07-03T13:36:28;6.23;;;5.60;;
14276;SDS011;7222;57.346;12.150;2022-07-03T13:38:56;6.70;;;6.10;;
14276;SDS011;7222;57.346;12.150;2022-07-03T13:41:24;6.13;;;5.63;;
14276;SDS011;7222;57.346;12.150;2022-07-03T13:43:51;8.87;;;8.17;;
14276;SDS011;7222;57.346;12.150;2022-07-03T13:46:21;9.17;;;8.47;;
14276;SDS011;7222;57.346;12.150;2022-07-03T13:48:49;9.27;;;8.47;;
14276;SDS011;7222;57.346;12.150;2022-07-03T13:51:16;8.23;;;7.50;;
14276;SDS011;7222;57.346;12.150;2022-07-03T13:53:43;7.60;;;6.83;;
14276;SDS011;7222;57.346;12.150;2022-07-03T13:56:11;8.93;;;8.03;;
14276;SDS011;7222;57.346;12.150;2022-07-03T13:58:39;7.47;;;6.87;;
14276;SDS011;7222;57.346;12.150;2022-07-03T14:01:07;5.77;;;5.30;;
14276;SDS011;7222;57.346;12.150;2022-07-03T14:03:35;5.87;;;5.47;;
14276;SDS011;7222;57.346;12.150;2022-07-03T14:06:02;5.50;;;5.10;;
14276;SDS011;7222;57.346;12.150;2022-07-03T14:08:30;5.53;;;5.10;;
14276;SDS011;7222;57.346;12.150;2022-07-03T14:10:57;5.60;;;5.10;;
14276;SDS011;7222;57.346;12.150;2022-07-03T14:13:24;5.47;;;5.07;;
14276;SDS011;7222;57.346;12.150;2022-07-03T14:15:51;5.17;;;4.63;;
14276;SDS011;7222;57.346;12.150;2022-07-03T14:18:19;4.80;;;4.50;;
14276;SDS011;7222;57.346;12.150;2022-07-03T14:20:47;4.60;;;4.20;;
14276;SDS011;7222;57.346;12.150;2022-07-03T14:23:14;5.87;;;4.93;;
14276;SDS011;7222;57.346;12.150;2022-07-03T14:25:42;4.80;;;4.40;;
14276;SDS011;7222;57.346;12.150;2022-07-03T14:28:09;4.20;;;3.90;;
14276;SDS011;7222;57.346;12.150;2022-07-03T14:30:53;4.50;;;4.10;;
14276;SDS011;7222;57.346;12.150;2022-07-03T14:33:37;6.40;;;6.00;;
14276;SDS011;7222;57.346;12.150;2022-07-03T14:36:06;6.30;;;5.80;;
14276;SDS011;7222;57.346;12.150;2022-07-03T14:38:33;6.30;;;5.80;;
14276;SDS011;7222;57.346;12.150;2022-07-03T14:41:00;6.20;;;5.70;;
14276;SDS011;7222;57.346;12.150;2022-07-03T14:43:27;6.97;;;6.23;;
14276;SDS011;7222;57.346;12.150;2022-07-03T14:45:54;5.53;;;5.10;;
14276;SDS011;7222;57.346;12.150;2022-07-03T14:48:21;5.17;;;4.77;;
14276;SDS011;7222;57.346;12.150;2022-07-03T14:50:49;4.47;;;4.17;;
14276;SDS011;7222;57.346;12.150;2022-07-03T14:53:18;4.90;;;4.40;;
14276;SDS011;7222;57.346;12.150;2022-07-03T14:55:45;3.70;;;3.50;;
14276;SDS011;7222;57.346;12.150;2022-07-03T14:58:16;4.40;;;4.00;;
14276;SDS011;7222;57.346;12.150;2022-07-03T15:00:48;4.60;;;4.20;;
14276;SDS011;7222;57.346;12.150;2022-07-03T15:03:17;3.77;;;3.50;;
14276;SDS011;7222;57.346;12.150;2022-07-03T15:05:46;5.13;;;4.10;;
14276;SDS011;7222;57.346;12.150;2022-07-03T15:08:15;4.17;;;3.97;;
14276;SDS011;7222;57.346;12.150;2022-07-03T15:11:00;4.10;;;3.80;;
14276;SDS011;7222;57.346;12.150;2022-07-03T15:13:29;3.50;;;3.30;;
14276;SDS011;7222;57.346;12.150;2022-07-03T15:15:58;3.83;;;3.60;;
14276;SDS011;7222;57.346;12.150;2022-07-03T15:18:27;4.03;;;3.73;;
14276;SDS011;7222;57.346;12.150;2022-07-03T15:20:55;3.80;;;3.60;;
14276;SDS011;7222;57.346;12.150;2022-07-03T15:23:23;3.60;;;3.30;;
14276;SDS011;7222;57.346;12.150;2022-07-03T15:25:53;4.57;;;4.27;;
14276;SDS011;7222;57.346;12.150;2022-07-03T15:28:21;3.90;;;3.60;;
14276;SDS011;7222;57.346;12.150;2022-07-03T15:30:52;4.60;;;4.20;;